Terminal Aerodrome Forecast
Issued by NWS

Home | Current Version | Previous Version | Text Only | Print | Product List | Glossary On
Versions: 1 2 3 4 5 6 7 8 9 10 11 12 13 14 15 16 17 18 19 20
000
FTUS42 KJAX 302127 AAB
TAFVQQ
TAF AMD
KVQQ 302127Z 3021/3118 10006KT 3SM SHRA VCTS SCT006 BKN015CB
      TEMPO 3022/3024 BKN006CB
     FM310000 11005KT P6SM VCSH SCT025 BKN060
     FM310400 VRB03KT P6SM SCT015 BKN250
     FM311600 VRB05KT P6SM VCSH BKN040=

USA.gov is the U.S. government's official web portal to all federal, state and local government web resources and services.